Hamaritha — PF2437 — position and weather

sailwx.info

Track history (hours):
 
Tides and Currents Weather Stations Pressure Air Temp Water Temp Dewpoint Dewpoint Depression Visibility Wind Speed Wind Dir Waves Ship Positions

Hamaritha

Last reported at 2016-Jul-02 04:33 UTC. Time now 2016-Jul-02 09:32 UTC.
Position N 51°09' E 006°48'.

Length 86 m.

Type: Ship. MMSI: 244700691.

Date/timePositionNaut miles runAvg speedWind from/ knotsBaromVisibWave heightAir tempDewpointWater temp
2016-Jul-02 04:33N 51°09' E 006°48'13 1.6
2016-Jul-01 20:09N 50°57' E 006°58'5 8.8
2016-Jul-01 19:32N 50°53' E 007°03'7 7.3
2016-Jul-01 18:33N 50°46' E 007°05'5 0.5
2016-Jul-01 07:07N 50°41' E 007°11'3 4.9
2016-Jul-01 06:34N 50°43' E 007°08'5 5.0
2016-Jul-01 05:33N 50°47' E 007°02'4 4.2
2016-Jul-01 04:32N 50°51' E 006°59'2 1.0
2016-Jul-01 02:05N 50°52' E 007°03'0 0.0
2016-Jul-01 01:31N 50°52' E 007°03'0 0.0
2016-Jul-01 00:28N 50°52' E 007°03'0 0.0
2016-Jun-30 23:26N 50°52' E 007°03'0 0.0
2016-Jun-30 22:22N 50°52' E 007°03'2 0.8
2016-Jun-30 20:30N 50°54' E 007°01'17 3.4
2016-Jun-30 15:34N 51°09' E 006°48'0 0.0
2016-Jun-30 14:33N 51°09' E 006°48'0 0.0
2016-Jun-30 08:07N 51°09' E 006°48'0 0.0
2016-Jun-30 07:33N 51°09' E 006°48'0 0.0
2016-Jun-30 06:33N 51°09' E 006°48'0 0.0
2016-Jun-30 05:31N 51°09' E 006°48'0 0.0
2016-Jun-30 04:33N 51°09' E 006°48'0 0.0
2016-Jun-30 03:30N 51°09' E 006°48'0 0.0
2016-Jun-30 02:33N 51°09' E 006°48'0 0.0
2016-Jun-30 01:24N 51°09' E 006°48'0 0.0
2016-Jun-30 00:04N 51°09' E 006°48'0 0.0
2016-Jun-29 23:33N 51°09' E 006°48'0 0.0
2016-Jun-29 22:30N 51°09' E 006°48'1 0.9
2016-Jun-29 21:33N 51°09' E 006°48'3 3.1
2016-Jun-29 20:33N 51°11' E 006°44'2 2.2
2016-Jun-29 19:33N 51°13' E 006°46'18 2.9
2016-Jun-29 13:28N 51°31' E 006°43'3 3.8
2016-Jun-29 12:33N 51°34' E 006°41'3 3.4
2016-Jun-29 11:33N 51°35' E 006°36'34 3.7
2016-Jun-29 02:25N 51°52' E 005°48'15 4.6
2016-Jun-28 23:13N 51°51' E 005°25'3 4.8
2016-Jun-28 22:32N 51°48' E 005°21'14 4.7
2016-Jun-28 19:33N 51°49' E 004°58'5 5.5
2016-Jun-28 18:33N 51°49' E 004°49'6 5.7
2016-Jun-28 17:33N 51°49' E 004°40'5 5.2
2016-Jun-28 16:34N 51°50' E 004°32'6 6.1
2016-Jun-28 15:33N 51°51' E 004°22'4 4.1
2016-Jun-28 14:33N 51°54' E 004°17'0 0.0
2016-Jun-28 13:33N 51°54' E 004°17'0 0.0
2016-Jun-28 12:33N 51°54' E 004°17'0 0.0
2016-Jun-28 11:33N 51°54' E 004°17'0 0.0
2016-Jun-28 10:33N 51°54' E 004°17'0 0.0
2016-Jun-28 09:33N 51°54' E 004°17'0 0.0
2016-Jun-28 08:33N 51°54' E 004°17'0 0.0
2016-Jun-28 07:33N 51°54' E 004°17'0 0.0
2016-Jun-28 06:33N 51°54' E 004°17'0 0.0
2016-Jun-28 04:33N 51°54' E 004°17'0 0.0
2016-Jun-28 03:33N 51°54' E 004°17'0 0.0
2016-Jun-28 02:33N 51°54' E 004°17'0 0.0
2016-Jun-28 01:33N 51°54' E 004°17'0 0.0
2016-Jun-28 00:33N 51°54' E 004°17'0 0.0
2016-Jun-27 23:33N 51°54' E 004°17'0 0.0
2016-Jun-27 22:33N 51°54' E 004°17'0 0.0
2016-Jun-27 21:34N 51°54' E 004°17'0 0.0
2016-Jun-27 20:33N 51°54' E 004°17'0 0.0
2016-Jun-27 19:33N 51°54' E 004°17'0 0.0
2016-Jun-27 18:33N 51°54' E 004°17'0 0.0
2016-Jun-27 17:33N 51°54' E 004°17'0 0.0
2016-Jun-27 16:33N 51°54' E 004°17'7 6.6
2016-Jun-27 15:33N 51°50' E 004°26'8 8.1
2016-Jun-27 14:34N 51°49' E 004°39'0 0.2
2016-Jun-27 13:34N 51°49' E 004°40'2 1.8
2016-Jun-27 12:33N 51°49' E 004°42'10 9.6
2016-Jun-27 11:33N 51°49' E 004°58'5 1.7
2016-Jun-27 08:33N 51°47' E 005°05'  
Track history (hours):
 
Tides and Currents Weather Stations Pressure Air Temp Water Temp Dewpoint Dewpoint Depression Visibility Wind Speed Wind Dir Waves Ship Positions

Hamaritha

Last reported at 2016-Jul-02 04:33 UTC. Time now 2016-Jul-02 09:32 UTC.
Position N 51°09' E 006°48'.

Length 86 m.

Type: Ship. MMSI: 244700691.

Date/timePositionNaut miles runAvg speedWind from/ knotsBaromVisibWave heightAir tempDewpointWater temp
2016-Jul-02 04:33N 51°09' E 006°48'13 1.6
2016-Jul-01 20:09N 50°57' E 006°58'5 8.8
2016-Jul-01 19:32N 50°53' E 007°03'7 7.3
2016-Jul-01 18:33N 50°46' E 007°05'5 0.5
2016-Jul-01 07:07N 50°41' E 007°11'3 4.9
2016-Jul-01 06:34N 50°43' E 007°08'5 5.0
2016-Jul-01 05:33N 50°47' E 007°02'4 4.2
2016-Jul-01 04:32N 50°51' E 006°59'2 1.0
2016-Jul-01 02:05N 50°52' E 007°03'0 0.0
2016-Jul-01 01:31N 50°52' E 007°03'0 0.0
2016-Jul-01 00:28N 50°52' E 007°03'0 0.0
2016-Jun-30 23:26N 50°52' E 007°03'0 0.0
2016-Jun-30 22:22N 50°52' E 007°03'2 0.8
2016-Jun-30 20:30N 50°54' E 007°01'17 3.4
2016-Jun-30 15:34N 51°09' E 006°48'0 0.0
2016-Jun-30 14:33N 51°09' E 006°48'0 0.0
2016-Jun-30 08:07N 51°09' E 006°48'0 0.0
2016-Jun-30 07:33N 51°09' E 006°48'0 0.0
2016-Jun-30 06:33N 51°09' E 006°48'0 0.0
2016-Jun-30 05:31N 51°09' E 006°48'0 0.0
2016-Jun-30 04:33N 51°09' E 006°48'0 0.0
2016-Jun-30 03:30N 51°09' E 006°48'0 0.0
2016-Jun-30 02:33N 51°09' E 006°48'0 0.0
2016-Jun-30 01:24N 51°09' E 006°48'0 0.0
2016-Jun-30 00:04N 51°09' E 006°48'0 0.0
2016-Jun-29 23:33N 51°09' E 006°48'0 0.0
2016-Jun-29 22:30N 51°09' E 006°48'1 0.9
2016-Jun-29 21:33N 51°09' E 006°48'3 3.1
2016-Jun-29 20:33N 51°11' E 006°44'2 2.2
2016-Jun-29 19:33N 51°13' E 006°46'18 2.9
2016-Jun-29 13:28N 51°31' E 006°43'3 3.8
2016-Jun-29 12:33N 51°34' E 006°41'3 3.4
2016-Jun-29 11:33N 51°35' E 006°36'34 3.7
2016-Jun-29 02:25N 51°52' E 005°48'15 4.6
2016-Jun-28 23:13N 51°51' E 005°25'3 4.8
2016-Jun-28 22:32N 51°48' E 005°21'14 4.7
2016-Jun-28 19:33N 51°49' E 004°58'5 5.5
2016-Jun-28 18:33N 51°49' E 004°49'6 5.7
2016-Jun-28 17:33N 51°49' E 004°40'5 5.2
2016-Jun-28 16:34N 51°50' E 004°32'6 6.1
2016-Jun-28 15:33N 51°51' E 004°22'4 4.1
2016-Jun-28 14:33N 51°54' E 004°17'0 0.0
2016-Jun-28 13:33N 51°54' E 004°17'0 0.0
2016-Jun-28 12:33N 51°54' E 004°17'0 0.0
2016-Jun-28 11:33N 51°54' E 004°17'0 0.0
2016-Jun-28 10:33N 51°54' E 004°17'0 0.0
2016-Jun-28 09:33N 51°54' E 004°17'0 0.0
2016-Jun-28 08:33N 51°54' E 004°17'0 0.0
2016-Jun-28 07:33N 51°54' E 004°17'0 0.0
2016-Jun-28 06:33N 51°54' E 004°17'0 0.0
2016-Jun-28 04:33N 51°54' E 004°17'0 0.0
2016-Jun-28 03:33N 51°54' E 004°17'0 0.0
2016-Jun-28 02:33N 51°54' E 004°17'0 0.0
2016-Jun-28 01:33N 51°54' E 004°17'0 0.0
2016-Jun-28 00:33N 51°54' E 004°17'0 0.0
2016-Jun-27 23:33N 51°54' E 004°17'0 0.0
2016-Jun-27 22:33N 51°54' E 004°17'0 0.0
2016-Jun-27 21:34N 51°54' E 004°17'0 0.0
2016-Jun-27 20:33N 51°54' E 004°17'0 0.0
2016-Jun-27 19:33N 51°54' E 004°17'0 0.0
2016-Jun-27 18:33N 51°54' E 004°17'0 0.0
2016-Jun-27 17:33N 51°54' E 004°17'0 0.0
2016-Jun-27 16:33N 51°54' E 004°17'7 6.6
2016-Jun-27 15:33N 51°50' E 004°26'8 8.1
2016-Jun-27 14:34N 51°49' E 004°39'0 0.2
2016-Jun-27 13:34N 51°49' E 004°40'2 1.8
2016-Jun-27 12:33N 51°49' E 004°42'10 9.6
2016-Jun-27 11:33N 51°49' E 004°58'5 1.7
2016-Jun-27 08:33N 51°47' E 005°05'  

Dump ship's entire track history